createdAt,value
2018-08-31T00:00:36.995Z,0.00
2018-08-31T00:01:37.057Z,0.00
2018-08-31T00:02:37.118Z,0.00
2018-08-31T00:03:37.045Z,0.00
2018-08-31T00:04:37.113Z,0.00
2018-08-31T00:05:37.139Z,0.00
2018-08-31T00:06:37.169Z,0.00
2018-08-31T00:07:37.161Z,0.00
2018-08-31T00:08:37.157Z,0.00
2018-08-31T00:09:37.185Z,0.00
2018-08-31T00:10:40.805Z,0.00
2018-08-31T00:11:37.211Z,0.00
2018-08-31T00:12:37.271Z,0.00
2018-08-31T00:13:37.305Z,0.00
2018-08-31T00:14:37.297Z,0.00
2018-08-31T00:16:19.910Z,0.00
2018-08-31T00:17:19.905Z,0.00
2018-08-31T00:18:19.970Z,0.00
2018-08-31T00:19:19.996Z,0.00
2018-08-31T00:20:20.024Z,0.00
2018-08-31T00:21:20.791Z,0.00
2018-08-31T00:22:20.017Z,0.00
2018-08-31T00:23:20.074Z,0.00
2018-08-31T00:24:20.104Z,0.00
2018-08-31T00:25:20.108Z,0.00
2018-08-31T00:26:20.098Z,0.00
2018-08-31T00:27:20.124Z,0.00
2018-08-31T00:28:20.190Z,0.00
2018-08-31T00:29:20.183Z,0.00
2018-08-31T00:30:20.180Z,0.00
2018-08-31T00:31:20.276Z,0.00
2018-08-31T00:32:20.271Z,0.00
2018-08-31T00:33:20.297Z,0.00
2018-08-31T00:34:20.293Z,0.00
2018-08-31T00:35:20.324Z,0.00
2018-08-31T00:36:20.317Z,0.00
2018-08-31T00:37:20.379Z,0.00
2018-08-31T00:38:20.373Z,0.00
2018-08-31T00:39:20.371Z,0.00
2018-08-31T00:40:20.402Z,0.00
2018-08-31T00:41:20.433Z,0.00
2018-08-31T00:42:20.489Z,0.00
2018-08-31T00:43:20.559Z,0.00
2018-08-31T00:44:20.486Z,0.00
2018-08-31T00:45:20.545Z,0.00
2018-08-31T00:46:20.540Z,0.00
2018-08-31T00:47:20.536Z,0.00
2018-08-31T00:48:20.597Z,0.00
2018-08-31T00:49:20.597Z,0.00
2018-08-31T00:51:10.553Z,0.00
2018-08-31T00:52:07.593Z,0.00
2018-08-31T00:53:07.591Z,0.00
2018-08-31T00:54:07.616Z,0.00
2018-08-31T00:55:07.817Z,0.00
2018-08-31T00:56:07.711Z,0.00
2018-08-31T00:57:07.680Z,0.00
2018-08-31T00:58:07.702Z,0.00
2018-08-31T00:59:50.711Z,0.00
2018-08-31T01:00:50.371Z,0.00
2018-08-31T01:01:50.437Z,0.00
2018-08-31T01:02:50.431Z,0.00
2018-08-31T01:03:50.462Z,0.00
2018-08-31T01:04:50.484Z,0.00
2018-08-31T01:05:50.516Z,0.00
2018-08-31T01:06:50.548Z,0.00
2018-08-31T01:07:50.644Z,0.00
2018-08-31T01:08:50.574Z,0.00
2018-08-31T01:09:50.565Z,0.00
2018-08-31T01:10:50.628Z,0.00
2018-08-31T01:11:50.623Z,0.00
2018-08-31T01:12:50.622Z,0.00
2018-08-31T01:13:50.683Z,0.00
2018-08-31T01:14:50.674Z,0.00
2018-08-31T01:15:50.704Z,0.00
2018-08-31T01:16:50.732Z,0.00
2018-08-31T01:17:50.729Z,0.00
2018-08-31T01:18:50.759Z,0.00
2018-08-31T01:19:50.822Z,0.00
2018-08-31T01:20:50.817Z,0.00
2018-08-31T01:21:50.879Z,0.00
2018-08-31T01:22:50.841Z,0.00
2018-08-31T01:23:50.905Z,0.00
2018-08-31T01:24:50.933Z,0.00
2018-08-31T01:25:50.892Z,0.00
2018-08-31T01:26:50.964Z,0.00
2018-08-31T01:27:50.952Z,0.00
2018-08-31T01:28:50.945Z,0.00
2018-08-31T01:29:51.012Z,0.00
2018-08-31T01:30:51.007Z,0.00
2018-08-31T01:31:51.100Z,0.00
2018-08-31T01:32:51.060Z,0.00
2018-08-31T01:33:51.093Z,0.00
2018-08-31T01:34:51.086Z,0.00
2018-08-31T01:35:51.112Z,0.00
2018-08-31T01:36:51.180Z,0.00
2018-08-31T01:37:51.140Z,0.00
2018-08-31T01:38:51.204Z,0.00
2018-08-31T01:39:51.266Z,0.00
2018-08-31T01:40:51.194Z,0.00
2018-08-31T01:41:51.253Z,0.00
2018-08-31T01:42:51.249Z,0.00
2018-08-31T01:43:51.414Z,0.00
2018-08-31T01:44:51.442Z,0.00
2018-08-31T01:45:51.404Z,0.00
2018-08-31T01:46:51.332Z,0.00
2018-08-31T01:47:51.397Z,0.00
2018-08-31T01:48:51.389Z,0.00
2018-08-31T01:49:51.522Z,0.00
2018-08-31T01:50:51.451Z,0.00
2018-08-31T01:51:51.470Z,0.00
2018-08-31T01:52:51.655Z,0.00
2018-08-31T01:53:51.706Z,0.00
2018-08-31T01:54:51.530Z,0.00
2018-08-31T01:55:51.591Z,0.00
2018-08-31T01:56:54.475Z,0.00
2018-08-31T01:57:51.688Z,0.00
2018-08-31T01:58:51.611Z,0.00
2018-08-31T01:59:51.812Z,0.00
2018-08-31T02:00:51.639Z,0.00
2018-08-31T02:02:34.312Z,0.00
2018-08-31T02:03:34.312Z,0.00
2018-08-31T02:04:34.403Z,0.00
2018-08-31T02:05:34.333Z,0.00
2018-08-31T02:06:34.364Z,0.00
2018-08-31T02:07:34.392Z,0.00
2018-08-31T02:08:34.420Z,0.00
2018-08-31T02:09:34.718Z,0.00
2018-08-31T02:10:34.448Z,0.00
2018-08-31T02:15:34.762Z,0.00
2018-08-31T02:16:34.585Z,0.00
2018-08-31T02:17:34.646Z,0.00
2018-08-31T02:18:34.642Z,0.00
2018-08-31T02:19:34.674Z,0.00
2018-08-31T02:20:35.105Z,0.00
2018-08-31T02:21:34.738Z,0.00
2018-08-31T02:22:35.094Z,0.00
2018-08-31T02:23:34.753Z,0.00
2018-08-31T02:24:34.787Z,0.00
2018-08-31T02:25:34.815Z,0.00
2018-08-31T02:26:34.771Z,0.00
2018-08-31T02:27:34.805Z,0.00
2018-08-31T02:28:34.834Z,0.00
2018-08-31T02:29:34.895Z,0.00
2018-08-31T02:30:34.890Z,0.00
2018-08-31T02:31:34.884Z,0.00
2018-08-31T02:32:34.911Z,0.00
2018-08-31T02:33:34.975Z,0.00
2018-08-31T02:34:34.968Z,0.00
2018-08-31T02:35:35.001Z,0.00
2018-08-31T02:36:34.994Z,0.00
2018-08-31T02:37:35.024Z,0.00
2018-08-31T02:38:35.084Z,0.00
2018-08-31T02:39:35.080Z,0.00
2018-08-31T02:40:35.143Z,0.00
2018-08-31T02:41:35.108Z,0.00
2018-08-31T02:42:35.171Z,0.00
2018-08-31T02:43:35.129Z,0.00
2018-08-31T02:44:35.202Z,0.00
2018-08-31T02:45:35.189Z,0.00
2018-08-31T02:46:35.185Z,0.00
2018-08-31T02:47:35.280Z,0.00
2018-08-31T02:48:35.239Z,0.00
2018-08-31T02:49:35.304Z,0.00
2018-08-31T02:50:35.470Z,0.00
2018-08-31T02:51:35.291Z,0.00
2018-08-31T02:52:35.386Z,0.00
2018-08-31T02:53:35.420Z,0.00
2018-08-31T02:54:35.383Z,0.00
2018-08-31T02:55:35.376Z,0.00
2018-08-31T02:56:35.408Z,0.00
2018-08-31T02:57:35.470Z,0.00
2018-08-31T02:58:35.496Z,0.00
2018-08-31T02:59:35.491Z,0.00
2018-08-31T03:00:35.521Z,0.00
2018-08-31T03:01:35.517Z,0.00
2018-08-31T03:02:36.484Z,0.00
2018-08-31T03:03:36.010Z,0.00
2018-08-31T03:04:35.569Z,0.00
2018-08-31T03:05:35.599Z,0.00
2018-08-31T03:06:35.627Z,0.00
2018-08-31T03:07:35.625Z,0.00
2018-08-31T03:08:35.686Z,0.00
2018-08-31T03:09:35.712Z,0.00
2018-08-31T03:10:35.743Z,0.00
2018-08-31T03:11:35.790Z,0.00
2018-08-31T03:12:36.942Z,0.00
2018-08-31T03:13:35.794Z,0.00
2018-08-31T03:14:35.756Z,0.00
2018-08-31T03:15:35.822Z,0.00
2018-08-31T03:16:35.846Z,0.00
2018-08-31T03:17:35.843Z,0.00
2018-08-31T03:18:35.908Z,0.00
2018-08-31T03:19:35.871Z,0.00
2018-08-31T03:20:36.100Z,0.00
2018-08-31T03:21:35.927Z,0.00
2018-08-31T03:22:36.022Z,0.00
2018-08-31T03:23:35.985Z,0.00
2018-08-31T03:24:35.976Z,0.00
2018-08-31T03:25:36.012Z,0.00
2018-08-31T03:26:36.029Z,0.00
2018-08-31T03:27:36.141Z,0.00
2018-08-31T03:28:36.096Z,0.00
2018-08-31T03:29:36.128Z,0.00
2018-08-31T03:30:36.121Z,0.00
2018-08-31T03:31:36.148Z,0.00
2018-08-31T03:32:36.176Z,0.00
2018-08-31T03:33:36.239Z,0.00
2018-08-31T03:34:36.166Z,0.00
2018-08-31T03:35:36.230Z,0.00
2018-08-31T03:36:36.224Z,0.00
2018-08-31T03:37:36.320Z,0.00
2018-08-31T03:38:36.284Z,0.00
2018-08-31T03:39:36.314Z,0.00
2018-08-31T03:40:36.339Z,0.00
2018-08-31T03:41:36.503Z,0.00
2018-08-31T03:42:36.396Z,0.00
2018-08-31T03:43:36.392Z,0.00
2018-08-31T03:44:36.390Z,0.00
2018-08-31T03:45:36.418Z,0.00
2018-08-31T03:46:36.413Z,0.00
2018-08-31T03:47:36.474Z,0.00
2018-08-31T03:48:36.507Z,0.00
2018-08-31T03:49:36.500Z,0.00
2018-08-31T03:50:37.136Z,0.00
2018-08-31T03:51:36.525Z,0.00
2018-08-31T03:52:36.589Z,0.00
2018-08-31T03:53:36.582Z,0.00
2018-08-31T03:54:36.611Z,0.00
2018-08-31T03:55:36.604Z,0.00
2018-08-31T03:56:36.669Z,0.00
2018-08-31T03:57:36.698Z,0.00
2018-08-31T03:58:36.693Z,0.00
2018-08-31T03:59:36.760Z,0.00
2018-08-31T04:00:36.718Z,0.00
2018-08-31T04:01:36.745Z,0.00
2018-08-31T04:02:36.810Z,0.00
2018-08-31T04:03:36.770Z,0.00
2018-08-31T04:04:36.832Z,0.00
2018-08-31T04:05:36.795Z,0.00
2018-08-31T04:06:36.858Z,0.00
2018-08-31T04:07:36.885Z,0.00
2018-08-31T04:08:36.922Z,0.00
2018-08-31T04:09:36.911Z,0.00
2018-08-31T04:10:36.943Z,0.00
2018-08-31T04:11:36.939Z,0.00
2018-08-31T04:12:37.065Z,0.00
2018-08-31T04:13:36.963Z,0.00
2018-08-31T04:14:37.019Z,0.00
2018-08-31T04:15:37.048Z,0.00
2018-08-31T04:16:37.115Z,0.00
2018-08-31T04:17:37.209Z,0.00
2018-08-31T04:18:37.372Z,5.63
2018-08-31T04:19:37.132Z,5.63
2018-08-31T04:20:37.131Z,5.63
2018-08-31T04:21:37.125Z,5.63
2018-08-31T04:22:37.151Z,5.63
2018-08-31T04:23:37.217Z,5.63
2018-08-31T04:24:37.250Z,5.63
2018-08-31T04:25:37.239Z,11.25
2018-08-31T04:26:37.333Z,11.25
2018-08-31T04:27:37.263Z,11.25
2018-08-31T04:28:37.359Z,11.25
2018-08-31T04:29:37.352Z,11.25
2018-08-31T04:30:37.317Z,16.88
2018-08-31T04:31:37.378Z,16.88
2018-08-31T04:32:37.378Z,16.88
2018-08-31T04:33:38.374Z,16.88
2018-08-31T04:34:37.431Z,22.50
2018-08-31T04:37:49.635Z,22.50
2018-08-31T04:38:48.189Z,28.13
2018-08-31T04:39:48.247Z,28.13
2018-08-31T04:40:48.239Z,28.13
2018-08-31T04:41:48.237Z,33.75
2018-08-31T04:42:48.308Z,33.75
2018-08-31T04:43:48.298Z,33.75
2018-08-31T04:44:48.357Z,39.38
2018-08-31T04:45:48.321Z,39.38
2018-08-31T04:46:48.348Z,39.38
2018-08-31T04:47:48.412Z,45.00
2018-08-31T04:48:48.406Z,45.00
2018-08-31T04:49:48.471Z,45.00
2018-08-31T04:50:48.431Z,50.63
2018-08-31T04:51:48.457Z,50.63
2018-08-31T04:52:49.091Z,50.63
2018-08-31T04:53:51.602Z,56.25
2018-08-31T04:54:48.580Z,56.25
2018-08-31T04:55:48.576Z,56.25
2018-08-31T04:56:48.571Z,61.88
2018-08-31T04:57:48.630Z,61.88
2018-08-31T04:58:52.441Z,61.88
2018-08-31T04:59:48.693Z,67.50
2018-08-31T05:00:48.651Z,67.50
2018-08-31T05:01:48.749Z,67.50
2018-08-31T05:02:48.714Z,73.13
2018-08-31T05:03:48.737Z,73.13
2018-08-31T05:04:48.802Z,73.13
2018-08-31T05:05:48.762Z,78.75
2018-08-31T05:06:48.790Z,78.75
2018-08-31T05:07:48.852Z,78.75
2018-08-31T05:08:48.815Z,84.38
2018-08-31T05:09:48.877Z,84.38
2018-08-31T05:10:48.909Z,84.38
2018-08-31T05:11:48.902Z,90.00
2018-08-31T05:12:48.931Z,90.00
2018-08-31T05:13:48.927Z,90.00
2018-08-31T05:14:48.992Z,95.63
2018-08-31T05:15:48.955Z,95.63
2018-08-31T05:16:48.946Z,95.63
2018-08-31T05:17:49.050Z,101.25
2018-08-31T05:18:49.016Z,101.25
2018-08-31T05:19:56.718Z,101.25
2018-08-31T05:20:49.064Z,106.88
2018-08-31T05:21:49.061Z,106.88
2018-08-31T05:22:49.113Z,106.88
2018-08-31T05:23:49.115Z,112.50
2018-08-31T05:24:49.179Z,112.50
2018-08-31T05:25:49.177Z,112.50
2018-08-31T05:26:49.169Z,118.13
2018-08-31T05:27:49.197Z,118.13
2018-08-31T05:28:49.293Z,118.13
2018-08-31T05:29:49.253Z,123.75
2018-08-31T05:30:49.253Z,123.75
2018-08-31T05:31:49.314Z,123.75
2018-08-31T05:32:49.309Z,129.38
2018-08-31T05:33:49.308Z,129.38
2018-08-31T05:34:49.470Z,129.38
2018-08-31T05:35:49.362Z,129.38
2018-08-31T05:36:49.388Z,135.00
2018-08-31T05:37:49.385Z,135.00
2018-08-31T05:38:49.419Z,135.00
2018-08-31T05:39:49.474Z,140.63
2018-08-31T05:40:49.471Z,140.63
2018-08-31T05:41:49.502Z,140.63
2018-08-31T05:42:49.496Z,146.25
2018-08-31T05:43:49.560Z,146.25
2018-08-31T05:44:49.523Z,146.25
2018-08-31T05:45:49.582Z,146.25
2018-08-31T05:46:49.612Z,151.88
2018-08-31T05:47:49.640Z,151.88
2018-08-31T05:48:49.606Z,151.88
2018-08-31T05:49:49.665Z,157.50
2018-08-31T05:50:49.725Z,157.50
2018-08-31T05:51:49.791Z,157.50
2018-08-31T05:52:49.785Z,157.50
2018-08-31T05:53:49.754Z,163.13
2018-08-31T05:54:51.054Z,163.13
2018-08-31T05:55:49.804Z,163.13
2018-08-31T05:56:49.834Z,168.75
2018-08-31T05:57:49.831Z,168.75
2018-08-31T05:58:49.891Z,168.75
2018-08-31T05:59:49.921Z,174.38
2018-08-31T06:00:49.951Z,174.38
2018-08-31T06:01:49.979Z,174.38
2018-08-31T06:02:49.975Z,180.00
2018-08-31T06:03:49.969Z,180.00
2018-08-31T06:04:50.067Z,180.00
2018-08-31T06:05:50.027Z,185.63
2018-08-31T06:06:50.089Z,185.63
2018-08-31T06:07:50.019Z,185.63
2018-08-31T06:08:50.047Z,191.25
2018-08-31T06:09:50.107Z,191.25
2018-08-31T06:10:50.069Z,191.25
2018-08-31T06:11:50.175Z,191.25
2018-08-31T06:12:50.134Z,191.25
2018-08-31T06:13:50.125Z,191.25
2018-08-31T06:14:50.190Z,191.25
2018-08-31T06:15:50.183Z,196.88
2018-08-31T06:16:50.305Z,196.88
2018-08-31T06:17:50.237Z,196.88
2018-08-31T06:18:50.274Z,202.50
2018-08-31T06:19:50.297Z,202.50
2018-08-31T06:20:50.320Z,202.50
2018-08-31T06:21:50.759Z,208.13
2018-08-31T06:22:50.316Z,208.13
2018-08-31T06:23:50.350Z,208.13
2018-08-31T06:24:51.387Z,213.75
2018-08-31T06:25:50.880Z,213.75
2018-08-31T06:26:50.434Z,213.75
2018-08-31T06:27:50.437Z,213.75
2018-08-31T06:28:50.491Z,213.75
2018-08-31T06:29:53.471Z,219.38
2018-08-31T06:30:50.515Z,219.38
2018-08-31T06:31:50.544Z,219.38
2018-08-31T06:32:50.539Z,219.38
2018-08-31T06:33:50.579Z,219.38
2018-08-31T06:34:53.618Z,225.00
2018-08-31T06:35:50.627Z,225.00
2018-08-31T06:36:50.655Z,225.00
2018-08-31T06:37:50.683Z,225.00
2018-08-31T06:38:50.680Z,225.00
2018-08-31T06:39:50.679Z,225.00
2018-08-31T06:40:50.799Z,225.00
2018-08-31T06:41:50.767Z,225.00
2018-08-31T06:42:50.799Z,225.00
2018-08-31T06:43:50.824Z,225.00
2018-08-31T06:44:50.823Z,225.00
2018-08-31T06:45:50.849Z,225.00
2018-08-31T06:46:50.875Z,225.00
2018-08-31T06:47:50.907Z,230.63
2018-08-31T06:48:50.870Z,230.63
2018-08-31T06:49:50.902Z,230.63
2018-08-31T06:50:50.923Z,230.63
2018-08-31T06:51:50.988Z,236.25
2018-08-31T06:52:51.017Z,236.25
2018-08-31T06:53:50.977Z,236.25
2018-08-31T06:54:51.009Z,236.25
2018-08-31T06:55:51.036Z,241.88
2018-08-31T06:56:51.101Z,241.88
2018-08-31T06:57:51.092Z,241.88
2018-08-31T06:58:51.090Z,241.88
2018-08-31T06:59:51.149Z,247.50
2018-08-31T07:00:51.215Z,247.50
2018-08-31T07:01:51.579Z,247.50
2018-08-31T07:02:51.238Z,247.50
2018-08-31T07:03:51.375Z,247.50
2018-08-31T07:04:51.233Z,247.50
2018-08-31T07:05:51.490Z,247.50
2018-08-31T07:09:41.074Z,258.75
2018-08-31T07:14:39.607Z,258.75
2018-08-31T07:16:35.470Z,258.75
2018-08-31T07:17:26.639Z,258.75
2018-08-31T07:18:27.511Z,258.75
2018-08-31T07:19:26.051Z,264.38
2018-08-31T07:25:27.754Z,270.00
2018-08-31T07:26:26.087Z,270.00
2018-08-31T07:27:28.507Z,270.00
2018-08-31T07:28:26.455Z,275.63
2018-08-31T07:29:31.785Z,275.63
2018-08-31T07:30:28.560Z,270.00
2018-08-31T07:31:27.347Z,275.63
2018-08-31T07:32:26.535Z,275.63
2018-08-31T07:33:26.464Z,281.25
2018-08-31T07:34:26.090Z,281.25
2018-08-31T07:35:25.890Z,281.25
2018-08-31T07:55:15.439Z,298.13
2018-08-31T07:56:15.450Z,292.50
2018-08-31T07:57:15.469Z,292.50
2018-08-31T07:58:15.489Z,298.13
2018-08-31T07:59:15.520Z,298.13
2018-08-31T08:00:15.536Z,292.50
2018-08-31T08:01:15.556Z,298.13
2018-08-31T08:02:15.579Z,298.13
2018-08-31T08:03:15.609Z,309.38
2018-08-31T08:04:15.629Z,309.38
2018-08-31T08:05:15.651Z,303.75
2018-08-31T08:06:15.672Z,309.38
2018-08-31T08:07:15.758Z,309.38
2018-08-31T08:08:15.714Z,309.38
2018-08-31T08:09:15.736Z,309.38
2018-08-31T08:10:15.762Z,315.00
2018-08-31T08:11:15.781Z,320.63
2018-08-31T08:12:15.807Z,326.25
2018-08-31T08:13:15.827Z,320.63
2018-08-31T08:14:15.851Z,337.50
2018-08-31T08:15:15.871Z,354.38
2018-08-31T08:16:15.891Z,360.00
2018-08-31T08:17:15.917Z,393.75
2018-08-31T08:18:15.936Z,405.00
2018-08-31T08:19:15.959Z,421.88
2018-08-31T08:20:15.981Z,466.88
2018-08-31T08:21:16.014Z,433.13
2018-08-31T08:22:16.023Z,410.63
2018-08-31T08:23:16.052Z,388.13
2018-08-31T08:24:16.071Z,376.88
2018-08-31T08:25:16.095Z,376.88
2018-08-31T08:26:16.122Z,365.63
2018-08-31T08:27:16.141Z,421.88
2018-08-31T08:28:16.193Z,433.13
2018-08-31T08:29:16.189Z,416.25
2018-08-31T08:30:16.211Z,416.25
2018-08-31T08:31:16.231Z,393.75
2018-08-31T08:32:16.252Z,410.63
2018-08-31T08:33:16.274Z,388.13
2018-08-31T08:34:16.303Z,410.63
2018-08-31T08:35:16.321Z,511.88
2018-08-31T08:36:16.346Z,573.75
2018-08-31T08:37:16.369Z,669.38
2018-08-31T08:38:16.390Z,669.38
2018-08-31T08:39:16.417Z,624.38
2018-08-31T08:40:16.435Z,635.63
2018-08-31T08:41:16.457Z,601.88
2018-08-31T08:42:16.516Z,523.13
2018-08-31T08:43:16.505Z,489.38
2018-08-31T08:44:16.531Z,489.38
2018-08-31T08:45:16.547Z,511.88
2018-08-31T08:46:16.575Z,523.13
2018-08-31T08:47:16.600Z,573.75
2018-08-31T08:48:16.699Z,534.38
2018-08-31T08:49:16.644Z,511.88
2018-08-31T08:50:16.667Z,551.25
2018-08-31T08:51:16.687Z,568.13
2018-08-31T08:52:16.715Z,607.50
2018-08-31T08:53:16.737Z,652.50
2018-08-31T08:54:16.764Z,691.88
2018-08-31T08:55:16.788Z,663.75
2018-08-31T08:56:16.809Z,663.75
2018-08-31T08:57:16.830Z,669.38
2018-08-31T08:58:17.015Z,590.63
2018-08-31T08:59:16.880Z,562.50
2018-08-31T09:00:16.901Z,551.25
2018-08-31T09:01:16.927Z,545.63
2018-08-31T09:02:16.947Z,601.88
2018-08-31T09:03:16.979Z,652.50
2018-08-31T09:04:16.997Z,691.88
2018-08-31T09:05:17.022Z,686.25
2018-08-31T09:06:17.045Z,703.13
2018-08-31T09:07:17.066Z,635.63
2018-08-31T09:08:17.097Z,562.50
2018-08-31T09:09:17.112Z,528.75
2018-08-31T09:10:17.148Z,455.63
2018-08-31T09:11:17.163Z,427.50
2018-08-31T09:12:17.232Z,416.25
2018-08-31T09:13:17.218Z,427.50
2018-08-31T09:14:17.241Z,455.63
2018-08-31T09:15:17.257Z,483.75
2018-08-31T09:16:17.283Z,523.13
2018-08-31T09:17:17.304Z,573.75
2018-08-31T09:18:17.338Z,658.13
2018-08-31T09:19:17.353Z,686.25
2018-08-31T09:20:17.417Z,708.75
2018-08-31T09:21:17.401Z,708.75
2018-08-31T09:22:17.439Z,736.88
2018-08-31T09:23:17.448Z,770.63
2018-08-31T09:24:17.473Z,759.38
2018-08-31T09:25:17.496Z,658.13
2018-08-31T09:26:17.522Z,585.00
2018-08-31T09:27:17.543Z,511.88
2018-08-31T09:28:17.569Z,545.63
2018-08-31T09:29:17.601Z,545.63
2018-08-31T09:30:17.625Z,590.63
2018-08-31T09:31:17.643Z,618.75
2018-08-31T09:32:17.705Z,742.50
2018-08-31T09:33:17.689Z,843.75
2018-08-31T09:34:17.713Z,877.50
2018-08-31T09:35:17.744Z,832.50
2018-08-31T09:36:17.760Z,720.00
2018-08-31T09:37:17.784Z,624.38
2018-08-31T09:38:17.815Z,585.00
2018-08-31T09:39:17.841Z,556.88
2018-08-31T09:40:17.858Z,545.63
2018-08-31T09:41:17.881Z,540.00
2018-08-31T09:42:17.911Z,534.38
2018-08-31T09:43:17.931Z,545.63
2018-08-31T09:44:17.956Z,551.25
2018-08-31T09:45:17.977Z,562.50
2018-08-31T09:46:18.005Z,590.63
2018-08-31T09:47:18.030Z,624.38
2018-08-31T09:48:18.058Z,669.38
2018-08-31T09:49:18.086Z,725.63
2018-08-31T09:50:18.108Z,748.13
2018-08-31T09:51:18.130Z,753.75
2018-08-31T09:52:18.150Z,753.75
2018-08-31T09:53:18.179Z,770.63
2018-08-31T09:54:18.203Z,781.88
2018-08-31T09:55:18.224Z,759.38
2018-08-31T09:56:18.246Z,736.88
2018-08-31T09:57:18.346Z,675.00
2018-08-31T09:58:18.304Z,646.88
2018-08-31T09:59:18.321Z,652.50
2018-08-31T10:00:18.349Z,658.13
2018-08-31T10:01:18.370Z,669.38
2018-08-31T10:02:18.398Z,680.63
2018-08-31T10:03:18.428Z,686.25
2018-08-31T10:04:18.446Z,686.25
2018-08-31T10:05:18.470Z,697.50
2018-08-31T10:06:18.495Z,725.63
2018-08-31T10:07:18.519Z,742.50
2018-08-31T10:08:18.547Z,776.25
2018-08-31T10:09:18.566Z,810.00
2018-08-31T10:10:18.589Z,866.25
2018-08-31T10:11:18.615Z,922.50
2018-08-31T10:12:18.646Z,978.75
2018-08-31T10:13:18.725Z,1006.88
2018-08-31T10:14:18.695Z,1001.25
2018-08-31T10:15:18.757Z,883.13
2018-08-31T10:16:18.738Z,753.75
2018-08-31T10:17:18.764Z,596.25
2018-08-31T10:18:18.798Z,551.25
2018-08-31T10:19:18.816Z,551.25
2018-08-31T10:20:18.843Z,562.50
2018-08-31T10:21:18.866Z,579.38
2018-08-31T10:22:18.890Z,585.00
2018-08-31T10:23:18.914Z,585.00
2018-08-31T10:24:18.942Z,585.00
2018-08-31T10:25:18.965Z,596.25
2018-08-31T10:26:19.032Z,630.00
2018-08-31T10:27:19.015Z,680.63
2018-08-31T10:28:19.038Z,736.88
2018-08-31T10:29:19.066Z,776.25
2018-08-31T10:30:19.131Z,804.38
2018-08-31T10:31:19.114Z,843.75
2018-08-31T10:32:19.142Z,900.00
2018-08-31T10:33:19.165Z,1006.88
2018-08-31T10:34:19.188Z,1057.50
2018-08-31T10:35:19.214Z,1108.13
2018-08-31T10:36:19.241Z,1158.75
2018-08-31T10:37:19.265Z,1209.38
2018-08-31T10:38:19.285Z,1243.13
2018-08-31T10:39:19.318Z,1282.50
2018-08-31T10:40:19.359Z,1265.63
2018-08-31T10:41:19.365Z,1186.88
2018-08-31T10:42:19.390Z,1125.00
2018-08-31T10:43:19.422Z,1096.88
2018-08-31T10:44:19.448Z,1080.00
2018-08-31T10:45:19.469Z,1096.88
2018-08-31T10:46:19.501Z,855.00
2018-08-31T10:47:19.521Z,703.13
2018-08-31T10:48:19.542Z,646.88
2018-08-31T10:49:19.570Z,607.50
2018-08-31T10:50:19.597Z,613.13
2018-08-31T10:51:19.618Z,646.88
2018-08-31T10:52:19.642Z,720.00
2018-08-31T10:53:19.670Z,821.25
2018-08-31T10:54:19.692Z,911.25
2018-08-31T10:55:19.720Z,1006.88
2018-08-31T10:56:19.749Z,1130.63
2018-08-31T10:57:19.768Z,3886.88
2018-08-31T10:58:19.801Z,3723.75
2018-08-31T10:59:19.821Z,3751.88
2018-08-31T11:00:19.856Z,3853.13
2018-08-31T11:01:19.872Z,3718.13
2018-08-31T11:02:19.921Z,1980.00
2018-08-31T11:03:19.929Z,843.75
2018-08-31T11:04:19.954Z,804.38
2018-08-31T11:05:19.981Z,798.75
2018-08-31T11:06:20.012Z,804.38
2018-08-31T11:07:20.039Z,838.13
2018-08-31T11:08:20.068Z,871.88
2018-08-31T11:09:20.092Z,928.13
2018-08-31T11:10:20.125Z,990.00
2018-08-31T11:11:20.150Z,1046.25
2018-08-31T11:12:20.177Z,1113.75
2018-08-31T11:13:20.204Z,1153.13
2018-08-31T11:14:20.226Z,1231.88
2018-08-31T11:15:20.446Z,1344.38
2018-08-31T11:16:20.281Z,3825.00
2018-08-31T11:17:20.314Z,3735.00
2018-08-31T11:18:20.336Z,3768.75
2018-08-31T11:19:20.361Z,3684.38
2018-08-31T11:20:20.394Z,3498.75
2018-08-31T11:21:20.426Z,3352.50
2018-08-31T11:22:20.446Z,3183.75
2018-08-31T11:23:20.476Z,3330.00
2018-08-31T11:24:20.503Z,3594.38
2018-08-31T11:25:21.946Z,3735.00
2018-08-31T11:26:20.562Z,3988.13
2018-08-31T11:27:20.591Z,3881.25
2018-08-31T11:28:20.619Z,3853.13
2018-08-31T11:29:20.646Z,1344.38
2018-08-31T11:30:20.683Z,1496.25
2018-08-31T11:31:20.707Z,2908.13
2018-08-31T11:32:20.743Z,3830.63
2018-08-31T11:33:20.765Z,3898.13
2018-08-31T11:34:20.795Z,3971.25
2018-08-31T11:35:20.828Z,4033.13
2018-08-31T11:36:20.858Z,3538.13
2018-08-31T11:37:20.888Z,1946.25
2018-08-31T11:38:20.923Z,3661.88
2018-08-31T11:39:20.947Z,3296.25
2018-08-31T11:40:20.980Z,1496.25
2018-08-31T11:41:21.009Z,4213.13
2018-08-31T11:42:21.042Z,4353.75
2018-08-31T11:43:21.081Z,4331.25
2018-08-31T11:44:21.107Z,4398.75
2018-08-31T11:45:21.133Z,4353.75
2018-08-31T11:46:21.165Z,4140.00
2018-08-31T11:47:21.202Z,4100.63
2018-08-31T11:48:21.225Z,4145.63
2018-08-31T11:49:21.255Z,4336.88
2018-08-31T11:50:21.286Z,1524.38
2018-08-31T11:51:21.320Z,4072.50
2018-08-31T11:52:21.353Z,4038.75
2018-08-31T11:53:21.388Z,3808.13
2018-08-31T11:54:21.416Z,3751.88
2018-08-31T11:55:21.490Z,3886.88
2018-08-31T11:56:21.479Z,3616.88
2018-08-31T11:57:21.606Z,3543.75
2018-08-31T11:58:21.543Z,3594.38
2018-08-31T11:59:21.579Z,3560.63
2018-08-31T12:00:21.702Z,3740.63
2018-08-31T12:01:21.676Z,3808.13
2018-08-31T12:02:21.674Z,3926.25
2018-08-31T12:03:21.710Z,4038.75
2018-08-31T12:04:21.736Z,3864.38
2018-08-31T12:05:21.772Z,3841.88
2018-08-31T12:06:21.803Z,3886.88
2018-08-31T12:07:21.837Z,3920.63
2018-08-31T12:08:21.866Z,3931.88
2018-08-31T12:09:21.903Z,3774.38
2018-08-31T12:10:21.930Z,3853.13
2018-08-31T12:11:21.967Z,3976.88
2018-08-31T12:12:21.997Z,3976.88
2018-08-31T12:13:22.031Z,3976.88
2018-08-31T12:14:22.059Z,3948.75
2018-08-31T12:15:22.096Z,3931.88
2018-08-31T12:16:22.132Z,3836.25
2018-08-31T12:17:22.162Z,3836.25
2018-08-31T12:18:22.194Z,4078.13
2018-08-31T12:19:22.225Z,3875.63
2018-08-31T12:20:22.260Z,3605.63
2018-08-31T12:21:22.291Z,3701.25
2018-08-31T12:22:22.322Z,3746.25
2018-08-31T12:23:22.357Z,3746.25
2018-08-31T12:24:22.589Z,3420.00
2018-08-31T12:25:22.421Z,2925.00
2018-08-31T12:26:22.453Z,3678.75
2018-08-31T12:27:22.494Z,3768.75
2018-08-31T12:28:22.537Z,3611.25
2018-08-31T12:29:22.567Z,3403.13
2018-08-31T12:30:22.590Z,3228.75
2018-08-31T12:31:22.621Z,3408.75
2018-08-31T12:32:22.654Z,3043.13
2018-08-31T12:33:22.685Z,3453.75
2018-08-31T12:34:22.721Z,3121.88
2018-08-31T12:35:22.753Z,3172.50
2018-08-31T12:36:22.786Z,1659.38
2018-08-31T12:37:22.820Z,1575.00
2018-08-31T12:38:22.843Z,1344.38
2018-08-31T12:39:22.877Z,1293.75
2018-08-31T12:40:22.956Z,1575.00
2018-08-31T12:41:22.956Z,1445.63
2018-08-31T12:42:22.976Z,1417.50
2018-08-31T12:43:23.027Z,973.13
2018-08-31T12:44:23.080Z,950.63
2018-08-31T12:45:23.075Z,961.88
2018-08-31T12:46:23.117Z,945.00
2018-08-31T12:47:23.134Z,916.88
2018-08-31T12:48:23.159Z,1113.75
2018-08-31T12:49:23.186Z,3183.75
2018-08-31T12:50:23.216Z,3172.50
2018-08-31T12:51:23.245Z,3285.00
2018-08-31T12:52:23.277Z,3695.63
2018-08-31T12:53:23.306Z,3060.00
2018-08-31T12:54:23.335Z,3054.38
2018-08-31T12:55:23.363Z,3150.00
2018-08-31T12:56:23.394Z,3380.63
2018-08-31T12:57:23.434Z,3363.75
2018-08-31T12:58:23.472Z,3459.38
2018-08-31T12:59:23.491Z,3414.38
2018-08-31T13:00:23.521Z,3453.75
2018-08-31T13:01:23.554Z,3223.13
2018-08-31T13:02:23.586Z,3054.38
2018-08-31T13:03:23.621Z,1305.00
2018-08-31T13:04:23.652Z,1231.88
2018-08-31T13:05:23.682Z,1305.00
2018-08-31T13:06:23.731Z,2255.63
2018-08-31T13:07:23.735Z,2970.00
2018-08-31T13:08:23.778Z,2401.88
2018-08-31T13:09:23.798Z,3133.13
2018-08-31T13:10:23.831Z,3105.00
2018-08-31T13:11:23.858Z,1198.13
2018-08-31T13:12:23.886Z,1108.13
2018-08-31T13:13:23.919Z,1153.13
2018-08-31T13:14:23.953Z,3690.00
2018-08-31T13:15:23.978Z,3864.38
2018-08-31T13:16:24.008Z,3982.50
2018-08-31T13:17:24.038Z,4061.25
2018-08-31T13:18:24.082Z,4168.13
2018-08-31T13:19:24.098Z,4320.00
2018-08-31T13:20:24.134Z,4269.38
2018-08-31T13:21:24.167Z,4128.75
2018-08-31T13:22:24.197Z,4331.25